PWSweather.com
Personal Weather Stations
Station Observations
SD92115WX
El Cerrito Stoneybluff, San Diego, CA 92115

El Cerrito StoneybluffSan Diego, CA 92115

Lat: 32.754096, Lon: -117.066705

Elevation: 420

Station Type: Davis Vantage Vue

http://stoneybluff.com

Latest ConditionsUpdated 6:34:05 PM PST Saturday, Dec 15, 2018
Currently Today's Max Today's Min Today's Average
Temperature 57.0°F13.9°C 73.9°F23.3°C 49.6°F9.8°C 60.7°F15.9°C
Dew Point 49.1°F9.5°C 49.8°F9.9°C 33.4°F0.8°C 39.6°F4.2°C
Winds Calm Calm 6.5 mph -10.5 kmh - - 1.1 mph 1.8 kmh
Wind Gusts -- 10.5 mph16.9 kmh - -
Humidity 75% 75% 23% 49%
Pressure 30.02 in1016.6 mb 30.03 in1016.9 mb 29.93 in1013.5 mb -
Hour Temp Dew Point Humidity Winds Wind Gusts Pressure Precip Precip Rate Daily Precip Total
06:34 PM 57.0°F13.9°C 49.1°F9.5°C 75% Calm Calm -- 30.02 in1016.6 mb 0.00 in0.0 mm 0.00 in0.0 mm 0.00 in0.0 mm
06:29 PM 57.4°F14.1°C 49.5°F9.7°C 75% Calm Calm -- 30.02 in1016.6 mb 0.00 in0.0 mm 0.00 in0.0 mm 0.00 in0.0 mm
06:24 PM 57.7°F14.3°C 49.8°F9.9°C 75% Calm Calm -- 30.03 in1016.9 mb 0.00 in0.0 mm 0.00 in0.0 mm 0.00 in0.0 mm
06:19 PM 57.9°F14.4°C 49.6°F9.8°C 74% Calm Calm -- 30.03 in1016.9 mb 0.00 in0.0 mm 0.00 in0.0 mm 0.00 in0.0 mm
06:14 PM 58.3°F14.6°C 49.6°F9.8°C 73% Calm Calm -- 30.02 in1016.6 mb 0.00 in0.0 mm 0.00 in0.0 mm 0.00 in0.0 mm
06:09 PM 58.3°F14.6°C 49.3°F9.6°C 72% Calm Calm -- 30.02 in1016.6 mb 0.00 in0.0 mm 0.00 in0.0 mm 0.00 in0.0 mm
06:04 PM 58.3°F14.6°C 48.9°F9.4°C 71% Calm Calm -- 30.02 in1016.6 mb 0.00 in0.0 mm 0.00 in0.0 mm 0.00 in0.0 mm
05:59 PM 58.6°F14.8°C 48.9°F9.4°C 70% Calm Calm -- 30.02 in1016.6 mb 0.00 in0.0 mm 0.00 in0.0 mm 0.00 in0.0 mm
05:54 PM 58.8°F14.9°C 49.1°F9.5°C 70% Calm Calm -- 30.01 in1016.3 mb 0.00 in0.0 mm 0.00 in0.0 mm 0.00 in0.0 mm
05:49 PM 59.2°F15.1°C 49.1°F9.5°C 69% Calm Calm 2.0 mph3.2 kmh 30.01 in1016.3 mb 0.00 in0.0 mm 0.00 in0.0 mm 0.00 in0.0 mm
05:44 PM 59.4°F15.2°C 48.7°F9.3°C 68% Calm Calm -- 30.01 in1016.3 mb 0.00 in0.0 mm 0.00 in0.0 mm 0.00 in0.0 mm
05:39 PM 59.7°F15.4°C 48.7°F9.3°C 67% Calm Calm -- 30.01 in1016.3 mb 0.00 in0.0 mm 0.00 in0.0 mm 0.00 in0.0 mm
05:34 PM 60.1°F15.6°C 49.1°F9.5°C 67% Calm Calm -- 30.00 in1015.9 mb 0.00 in0.0 mm 0.00 in0.0 mm 0.00 in0.0 mm
05:29 PM 60.4°F15.8°C 48.6°F9.2°C 65% Calm Calm 1.1 mph1.8 kmh 30.00 in1015.9 mb 0.00 in0.0 mm 0.00 in0.0 mm 0.00 in0.0 mm
05:24 PM 60.6°F15.9°C 48.4°F9.1°C 64% 0.2 mph N0.3 kmh N 3.1 mph5.0 kmh 30.00 in1015.9 mb 0.00 in0.0 mm 0.00 in0.0 mm 0.00 in0.0 mm
05:19 PM 61.0°F16.1°C 47.8°F8.8°C 62% 1.3 mph NW2.1 kmh NW 3.1 mph5.0 kmh 29.99 in1015.6 mb 0.00 in0.0 mm 0.00 in0.0 mm 0.00 in0.0 mm
05:14 PM 61.3°F16.3°C 46.9°F8.3°C 59% 2.2 mph NW3.5 kmh NW 6.3 mph10.1 kmh 29.99 in1015.6 mb 0.00 in0.0 mm 0.00 in0.0 mm 0.00 in0.0 mm
05:09 PM 61.7°F16.5°C 45.3°F7.4°C 55% 0.7 mph WNW1.1 kmh WNW 4.3 mph6.9 kmh 29.98 in1015.2 mb 0.00 in0.0 mm 0.00 in0.0 mm 0.00 in0.0 mm
05:04 PM 62.1°F16.7°C 44.2°F6.8°C 52% 0.4 mph NW0.6 kmh NW 6.3 mph10.1 kmh 29.98 in1015.2 mb 0.00 in0.0 mm 0.00 in0.0 mm 0.00 in0.0 mm
04:59 PM 62.4°F16.9°C 44.1°F6.7°C 51% 3.4 mph WNW5.5 kmh WNW 6.3 mph10.1 kmh 29.98 in1015.2 mb 0.00 in0.0 mm 0.00 in0.0 mm 0.00 in0.0 mm
04:54 PM 62.8°F17.1°C 43.9°F6.6°C 50% 2.5 mph NW4.0 kmh NW 5.4 mph8.7 kmh 29.98 in1015.2 mb 0.00 in0.0 mm 0.00 in0.0 mm 0.00 in0.0 mm
04:49 PM 63.3°F17.4°C 45.3°F7.4°C 52% 1.3 mph NNW2.1 kmh NNW 4.3 mph6.9 kmh 29.98 in1015.2 mb 0.00 in0.0 mm 0.00 in0.0 mm 0.00 in0.0 mm
04:44 PM 63.7°F17.6°C 44.8°F7.1°C 50% Calm Calm 4.3 mph6.9 kmh 29.98 in1015.2 mb 0.00 in0.0 mm 0.00 in0.0 mm 0.00 in0.0 mm
04:39 PM 64.2°F17.9°C 44.1°F6.7°C 48% 2.0 mph NW3.2 kmh NW 4.3 mph6.9 kmh 29.98 in1015.2 mb 0.00 in0.0 mm 0.00 in0.0 mm 0.00 in0.0 mm
04:34 PM 64.8°F18.2°C 43.0°F6.1°C 45% 1.8 mph NW2.9 kmh NW 4.3 mph6.9 kmh 29.98 in1015.2 mb 0.00 in0.0 mm 0.00 in0.0 mm 0.00 in0.0 mm
04:29 PM 65.5°F18.6°C 41.7°F5.4°C 42% 3.8 mph NNW6.1 kmh NNW 6.3 mph10.1 kmh 29.98 in1015.2 mb 0.00 in0.0 mm 0.00 in0.0 mm 0.00 in0.0 mm
04:24 PM 65.8°F18.8°C 39.6°F4.2°C 38% 3.6 mph WNW5.8 kmh WNW 6.3 mph10.1 kmh 29.97 in1014.9 mb 0.00 in0.0 mm 0.00 in0.0 mm 0.00 in0.0 mm
04:19 PM 66.6°F19.2°C 40.1°F4.5°C 38% 2.2 mph NW3.5 kmh NW 7.4 mph11.9 kmh 29.97 in1014.9 mb 0.00 in0.0 mm 0.00 in0.0 mm 0.00 in0.0 mm
04:14 PM 67.1°F19.5°C 43.9°F6.6°C 43% Calm Calm 3.1 mph5.0 kmh 29.97 in1014.9 mb 0.00 in0.0 mm 0.00 in0.0 mm 0.00 in0.0 mm
04:09 PM 67.3°F19.6°C 44.1°F6.7°C 43% 2.2 mph W3.5 kmh W 5.4 mph8.7 kmh 29.97 in1014.9 mb 0.00 in0.0 mm 0.00 in0.0 mm 0.00 in0.0 mm
04:04 PM 67.8°F19.9°C 43.3°F6.3°C 41% 1.3 mph NNW2.1 kmh NNW 5.4 mph8.7 kmh 29.96 in1014.6 mb 0.00 in0.0 mm 0.00 in0.0 mm 0.00 in0.0 mm
03:59 PM 68.2°F20.1°C 43.0°F6.1°C 40% 2.9 mph NW4.7 kmh NW 6.3 mph10.1 kmh 29.96 in1014.6 mb 0.00 in0.0 mm 0.00 in0.0 mm 0.00 in0.0 mm
03:54 PM 68.4°F20.2°C 43.2°F6.2°C 40% 4.0 mph W6.4 kmh W 7.4 mph11.9 kmh 29.96 in1014.6 mb 0.00 in0.0 mm 0.00 in0.0 mm 0.00 in0.0 mm
03:49 PM 69.1°F20.6°C 43.7°F6.5°C 40% 4.3 mph NW6.9 kmh NW 6.3 mph10.1 kmh 29.96 in1014.6 mb 0.00 in0.0 mm 0.00 in0.0 mm 0.00 in0.0 mm
03:44 PM 69.6°F20.9°C 43.5°F6.4°C 39% 1.8 mph NW2.9 kmh NW 7.4 mph11.9 kmh 29.96 in1014.6 mb 0.00 in0.0 mm 0.00 in0.0 mm 0.00 in0.0 mm
03:39 PM 70.0°F21.1°C 41.7°F5.4°C 36% 1.8 mph NNW2.9 kmh NNW 6.3 mph10.1 kmh 29.95 in1014.2 mb 0.00 in0.0 mm 0.00 in0.0 mm 0.00 in0.0 mm
03:34 PM 70.3°F21.3°C 41.4°F5.2°C 35% 3.8 mph WNW6.1 kmh WNW 6.3 mph10.1 kmh 29.95 in1014.2 mb 0.00 in0.0 mm 0.00 in0.0 mm 0.00 in0.0 mm
03:29 PM 70.9°F21.6°C 39.6°F4.2°C 32% 2.5 mph N4.0 kmh N 8.5 mph13.7 kmh 29.95 in1014.2 mb 0.00 in0.0 mm 0.00 in0.0 mm 0.00 in0.0 mm
03:24 PM 71.1°F21.7°C 38.8°F3.8°C 31% 2.9 mph NW4.7 kmh NW 7.4 mph11.9 kmh 29.94 in1013.9 mb 0.00 in0.0 mm 0.00 in0.0 mm 0.00 in0.0 mm
03:19 PM 71.1°F21.7°C 38.8°F3.8°C 31% 3.6 mph N5.8 kmh N 8.5 mph13.7 kmh 29.94 in1013.9 mb 0.00 in0.0 mm 0.00 in0.0 mm 0.00 in0.0 mm
03:14 PM 71.6°F22.0°C 38.5°F3.6°C 30% 2.7 mph WNW4.3 kmh WNW 7.4 mph11.9 kmh 29.94 in1013.9 mb 0.00 in0.0 mm 0.00 in0.0 mm 0.00 in0.0 mm
03:09 PM 71.8°F22.1°C 38.7°F3.7°C 30% 3.6 mph NW5.8 kmh NW 7.4 mph11.9 kmh 29.94 in1013.9 mb 0.00 in0.0 mm 0.00 in0.0 mm 0.00 in0.0 mm
03:04 PM 71.8°F22.1°C 38.7°F3.7°C 30% 3.6 mph NW5.8 kmh NW 6.3 mph10.1 kmh 29.94 in1013.9 mb 0.00 in0.0 mm 0.00 in0.0 mm 0.00 in0.0 mm
02:59 PM 72.1°F22.3°C 38.1°F3.4°C 29% 4.7 mph NW7.6 kmh NW 8.5 mph13.7 kmh 29.94 in1013.9 mb 0.00 in0.0 mm 0.00 in0.0 mm 0.00 in0.0 mm
02:54 PM 72.3°F22.4°C 36.5°F2.5°C 27% 5.1 mph NW8.2 kmh NW 9.6 mph15.4 kmh 29.94 in1013.9 mb 0.00 in0.0 mm 0.00 in0.0 mm 0.00 in0.0 mm
02:49 PM 72.7°F22.6°C 37.8°F3.2°C 28% 6.5 mph NW10.5 kmh NW 9.6 mph15.4 kmh 29.94 in1013.9 mb 0.00 in0.0 mm 0.00 in0.0 mm 0.00 in0.0 mm
02:44 PM 72.9°F22.7°C 37.8°F3.2°C 28% 5.1 mph N8.2 kmh N 10.5 mph16.9 kmh 29.94 in1013.9 mb 0.00 in0.0 mm 0.00 in0.0 mm 0.00 in0.0 mm
02:39 PM 72.9°F22.7°C 38.7°F3.7°C 29% 3.6 mph NW5.8 kmh NW 8.5 mph13.7 kmh 29.93 in1013.5 mb 0.00 in0.0 mm 0.00 in0.0 mm 0.00 in0.0 mm
02:34 PM 73.2°F22.9°C 38.1°F3.4°C 28% 3.6 mph NW5.8 kmh NW 8.5 mph13.7 kmh 29.94 in1013.9 mb 0.00 in0.0 mm 0.00 in0.0 mm 0.00 in0.0 mm
02:29 PM 73.2°F22.9°C 37.2°F2.9°C 27% 4.3 mph NW6.9 kmh NW 7.4 mph11.9 kmh 29.93 in1013.5 mb 0.00 in0.0 mm 0.00 in0.0 mm 0.00 in0.0 mm
02:24 PM 73.8°F23.2°C 36.7°F2.6°C 26% 3.8 mph W6.1 kmh W 6.3 mph10.1 kmh 29.93 in1013.5 mb 0.00 in0.0 mm 0.00 in0.0 mm 0.00 in0.0 mm
02:19 PM 73.6°F23.1°C 33.4°F0.8°C 23% 4.3 mph WNW6.9 kmh WNW 7.4 mph11.9 kmh 29.93 in1013.5 mb 0.00 in0.0 mm 0.00 in0.0 mm 0.00 in0.0 mm
02:14 PM 73.4°F23.0°C 35.4°F1.9°C 25% 3.1 mph WNW5.0 kmh WNW 8.5 mph13.7 kmh 29.93 in1013.5 mb 0.00 in0.0 mm 0.00 in0.0 mm 0.00 in0.0 mm
02:09 PM 73.2°F22.9°C 35.2°F1.8°C 25% 6.3 mph NW10.1 kmh NW 8.5 mph13.7 kmh 29.93 in1013.5 mb 0.00 in0.0 mm 0.00 in0.0 mm 0.00 in0.0 mm
02:04 PM 73.6°F23.1°C 35.6°F2.0°C 25% 4.7 mph WSW7.6 kmh WSW 7.4 mph11.9 kmh 29.93 in1013.5 mb 0.00 in0.0 mm 0.00 in0.0 mm 0.00 in0.0 mm
01:59 PM 73.6°F23.1°C 37.6°F3.1°C 27% 2.7 mph WSW4.3 kmh WSW 7.4 mph11.9 kmh 29.93 in1013.5 mb 0.00 in0.0 mm 0.00 in0.0 mm 0.00 in0.0 mm
01:54 PM 73.6°F23.1°C 36.5°F2.5°C 26% 4.5 mph NW7.2 kmh NW 9.6 mph15.4 kmh 29.93 in1013.5 mb 0.00 in0.0 mm 0.00 in0.0 mm 0.00 in0.0 mm
01:49 PM 73.8°F23.2°C 35.8°F2.1°C 25% 3.8 mph NW6.1 kmh NW 7.4 mph11.9 kmh 29.93 in1013.5 mb 0.00 in0.0 mm 0.00 in0.0 mm 0.00 in0.0 mm
01:44 PM 73.9°F23.3°C 36.9°F2.7°C 26% 1.6 mph NW2.6 kmh NW 7.4 mph11.9 kmh 29.93 in1013.5 mb 0.00 in0.0 mm 0.00 in0.0 mm 0.00 in0.0 mm
01:39 PM 73.8°F23.2°C 36.7°F2.6°C 26% 0.7 mph NW1.1 kmh NW 7.4 mph11.9 kmh 29.93 in1013.5 mb 0.00 in0.0 mm 0.00 in0.0 mm 0.00 in0.0 mm
01:34 PM 73.4°F23.0°C 35.4°F1.9°C 25% 1.3 mph NW2.1 kmh NW 7.4 mph11.9 kmh 29.93 in1013.5 mb 0.00 in0.0 mm 0.00 in0.0 mm 0.00 in0.0 mm
01:29 PM 73.6°F23.1°C 35.6°F2.0°C 25% 5.1 mph NW8.2 kmh NW 8.5 mph13.7 kmh 29.94 in1013.9 mb 0.00 in0.0 mm 0.00 in0.0 mm 0.00 in0.0 mm
01:24 PM 73.8°F23.2°C 37.8°F3.2°C 27% 3.4 mph WSW5.5 kmh WSW 6.3 mph10.1 kmh 29.94 in1013.9 mb 0.00 in0.0 mm 0.00 in0.0 mm 0.00 in0.0 mm
01:19 PM 73.2°F22.9°C 37.2°F2.9°C 27% 3.1 mph WNW5.0 kmh WNW 6.3 mph10.1 kmh 29.94 in1013.9 mb 0.00 in0.0 mm 0.00 in0.0 mm 0.00 in0.0 mm
01:14 PM 73.0°F22.8°C 37.9°F3.3°C 28% 2.2 mph NW3.5 kmh NW 5.4 mph8.7 kmh 29.94 in1013.9 mb 0.00 in0.0 mm 0.00 in0.0 mm 0.00 in0.0 mm
01:09 PM 73.0°F22.8°C 38.8°F3.8°C 29% 3.8 mph NW6.1 kmh NW 6.3 mph10.1 kmh 29.94 in1013.9 mb 0.00 in0.0 mm 0.00 in0.0 mm 0.00 in0.0 mm
01:04 PM 73.4°F23.0°C 39.2°F4.0°C 29% 3.4 mph NE5.5 kmh NE 5.4 mph8.7 kmh 29.95 in1014.2 mb 0.00 in0.0 mm 0.00 in0.0 mm 0.00 in0.0 mm
12:58 PM 73.4°F23.0°C 38.3°F3.5°C 28% 2.5 mph NW4.0 kmh NW 5.4 mph8.7 kmh 29.95 in1014.2 mb 0.00 in0.0 mm 0.00 in0.0 mm 0.00 in0.0 mm
12:53 PM 72.9°F22.7°C 38.7°F3.7°C 29% 1.8 mph WNW2.9 kmh WNW 7.4 mph11.9 kmh 29.95 in1014.2 mb 0.00 in0.0 mm 0.00 in0.0 mm 0.00 in0.0 mm
12:48 PM 72.7°F22.6°C 38.7°F3.7°C 29% 4.5 mph WSW7.2 kmh WSW 7.4 mph11.9 kmh 29.96 in1014.6 mb 0.00 in0.0 mm 0.00 in0.0 mm 0.00 in0.0 mm
12:43 PM 73.0°F22.8°C 39.7°F4.3°C 30% 3.4 mph WSW5.5 kmh WSW 7.4 mph11.9 kmh 29.96 in1014.6 mb 0.00 in0.0 mm 0.00 in0.0 mm 0.00 in0.0 mm
12:38 PM 72.7°F22.6°C 40.3°F4.6°C 31% 2.0 mph NW3.2 kmh NW 6.3 mph10.1 kmh 29.96 in1014.6 mb 0.00 in0.0 mm 0.00 in0.0 mm 0.00 in0.0 mm
12:33 PM 72.9°F22.7°C 36.9°F2.7°C 27% 3.6 mph NW5.8 kmh NW 7.4 mph11.9 kmh 29.97 in1014.9 mb 0.00 in0.0 mm 0.00 in0.0 mm 0.00 in0.0 mm
12:28 PM 72.7°F22.6°C 35.8°F2.1°C 26% 2.2 mph W3.5 kmh W 6.3 mph10.1 kmh 29.97 in1014.9 mb 0.00 in0.0 mm 0.00 in0.0 mm 0.00 in0.0 mm
12:23 PM 72.5°F22.5°C 33.6°F0.9°C 24% 4.0 mph WNW6.4 kmh WNW 7.4 mph11.9 kmh 29.97 in1014.9 mb 0.00 in0.0 mm 0.00 in0.0 mm 0.00 in0.0 mm
12:18 PM 72.3°F22.4°C 36.5°F2.5°C 27% 2.5 mph WSW4.0 kmh WSW 7.4 mph11.9 kmh 29.97 in1014.9 mb 0.00 in0.0 mm 0.00 in0.0 mm 0.00 in0.0 mm
12:13 PM 72.1°F22.3°C 35.4°F1.9°C 26% 2.7 mph W4.3 kmh W 7.4 mph11.9 kmh 29.97 in1014.9 mb 0.00 in0.0 mm 0.00 in0.0 mm 0.00 in0.0 mm
12:08 PM 72.1°F22.3°C 35.4°F1.9°C 26% 4.7 mph NW7.6 kmh NW 7.4 mph11.9 kmh 29.98 in1015.2 mb 0.00 in0.0 mm 0.00 in0.0 mm 0.00 in0.0 mm
12:03 PM 72.3°F22.4°C 35.6°F2.0°C 26% 4.3 mph WNW6.9 kmh WNW 7.4 mph11.9 kmh 29.98 in1015.2 mb 0.00 in0.0 mm 0.00 in0.0 mm 0.00 in0.0 mm
11:58 AM 71.8°F22.1°C 35.1°F1.7°C 26% 1.6 mph NW2.6 kmh NW 5.4 mph8.7 kmh 29.98 in1015.2 mb 0.00 in0.0 mm 0.00 in0.0 mm 0.00 in0.0 mm
11:53 AM 71.4°F21.9°C 34.7°F1.5°C 26% 1.8 mph NNW2.9 kmh NNW 5.4 mph8.7 kmh 29.98 in1015.2 mb 0.00 in0.0 mm 0.00 in0.0 mm 0.00 in0.0 mm
11:48 AM 71.1°F21.7°C 36.3°F2.4°C 28% 0.4 mph WSW0.6 kmh WSW 6.3 mph10.1 kmh 29.99 in1015.6 mb 0.00 in0.0 mm 0.00 in0.0 mm 0.00 in0.0 mm
11:43 AM 70.7°F21.5°C 35.1°F1.7°C 27% 4.3 mph NNW6.9 kmh NNW 8.5 mph13.7 kmh 29.99 in1015.6 mb 0.00 in0.0 mm 0.00 in0.0 mm 0.00 in0.0 mm
11:38 AM 70.9°F21.6°C 36.1°F2.3°C 28% 1.8 mph WNW2.9 kmh WNW 5.4 mph8.7 kmh 30.00 in1015.9 mb 0.00 in0.0 mm 0.00 in0.0 mm 0.00 in0.0 mm
11:33 AM 70.3°F21.3°C 35.6°F2.0°C 28% 1.8 mph NW2.9 kmh NW 7.4 mph11.9 kmh 30.00 in1015.9 mb 0.00 in0.0 mm 0.00 in0.0 mm 0.00 in0.0 mm
11:28 AM 70.3°F21.3°C 34.7°F1.5°C 27% 2.0 mph W3.2 kmh W 5.4 mph8.7 kmh 30.00 in1015.9 mb 0.00 in0.0 mm 0.00 in0.0 mm 0.00 in0.0 mm
11:23 AM 69.8°F21.0°C 33.4°F0.8°C 26% 3.4 mph NW5.5 kmh NW 6.3 mph10.1 kmh 30.00 in1015.9 mb 0.00 in0.0 mm 0.00 in0.0 mm 0.00 in0.0 mm
11:18 AM 69.6°F20.9°C 34.2°F1.2°C 27% 1.8 mph WSW2.9 kmh WSW 7.4 mph11.9 kmh 30.00 in1015.9 mb 0.00 in0.0 mm 0.00 in0.0 mm 0.00 in0.0 mm
11:13 AM 69.6°F20.9°C 36.9°F2.7°C 30% 2.2 mph W3.5 kmh W 5.4 mph8.7 kmh 30.00 in1015.9 mb 0.00 in0.0 mm 0.00 in0.0 mm 0.00 in0.0 mm
11:08 AM 69.6°F20.9°C 37.6°F3.1°C 31% 1.8 mph WNW2.9 kmh WNW 5.4 mph8.7 kmh 30.01 in1016.3 mb 0.00 in0.0 mm 0.00 in0.0 mm 0.00 in0.0 mm
11:03 AM 69.3°F20.7°C 36.5°F2.5°C 30% 1.6 mph W2.6 kmh W 4.3 mph6.9 kmh 30.01 in1016.3 mb 0.00 in0.0 mm 0.00 in0.0 mm 0.00 in0.0 mm
10:58 AM 68.7°F20.4°C 36.9°F2.7°C 31% 0.9 mph WNW1.4 kmh WNW 4.3 mph6.9 kmh 30.01 in1016.3 mb 0.00 in0.0 mm 0.00 in0.0 mm 0.00 in0.0 mm
10:53 AM 68.5°F20.3°C 36.7°F2.6°C 31% 1.6 mph W2.6 kmh W 4.3 mph6.9 kmh 30.01 in1016.3 mb 0.00 in0.0 mm 0.00 in0.0 mm 0.00 in0.0 mm
10:48 AM 68.4°F20.2°C 37.4°F3.0°C 32% 0.9 mph WSW1.4 kmh WSW 3.1 mph5.0 kmh 30.01 in1016.3 mb 0.00 in0.0 mm 0.00 in0.0 mm 0.00 in0.0 mm
10:43 AM 67.8°F19.9°C 36.1°F2.3°C 31% 0.4 mph WSW0.6 kmh WSW 4.3 mph6.9 kmh 30.01 in1016.3 mb 0.00 in0.0 mm 0.00 in0.0 mm 0.00 in0.0 mm
10:38 AM 67.8°F19.9°C 37.6°F3.1°C 33% 0.7 mph WNW1.1 kmh WNW 3.1 mph5.0 kmh 30.01 in1016.3 mb 0.00 in0.0 mm 0.00 in0.0 mm 0.00 in0.0 mm
10:33 AM 67.6°F19.8°C 37.6°F3.1°C 33% Calm Calm 3.1 mph5.0 kmh 30.02 in1016.6 mb 0.00 in0.0 mm 0.00 in0.0 mm 0.00 in0.0 mm
10:28 AM 67.8°F19.9°C 38.5°F3.6°C 34% 2.0 mph SSW3.2 kmh SSW 3.1 mph5.0 kmh 30.03 in1016.9 mb 0.00 in0.0 mm 0.00 in0.0 mm 0.00 in0.0 mm
10:23 AM 67.3°F19.6°C 37.2°F2.9°C 33% 0.9 mph SW1.4 kmh SW 2.0 mph3.2 kmh 30.02 in1016.6 mb 0.00 in0.0 mm 0.00 in0.0 mm 0.00 in0.0 mm
10:18 AM 66.7°F19.3°C 36.7°F2.6°C 33% 1.1 mph SE1.8 kmh SE 3.1 mph5.0 kmh 30.03 in1016.9 mb 0.00 in0.0 mm 0.00 in0.0 mm 0.00 in0.0 mm
10:13 AM 66.4°F19.1°C 37.9°F3.3°C 35% Calm Calm 2.0 mph3.2 kmh 30.03 in1016.9 mb 0.00 in0.0 mm 0.00 in0.0 mm 0.00 in0.0 mm
10:08 AM 66.4°F19.1°C 37.9°F3.3°C 35% 0.7 mph S1.1 kmh S 3.1 mph5.0 kmh 30.02 in1016.6 mb 0.00 in0.0 mm 0.00 in0.0 mm 0.00 in0.0 mm
10:03 AM 65.8°F18.8°C 36.7°F2.6°C 34% 0.4 mph SSW0.6 kmh SSW 4.3 mph6.9 kmh 30.03 in1016.9 mb 0.00 in0.0 mm 0.00 in0.0 mm 0.00 in0.0 mm
09:58 AM 65.5°F18.6°C 36.3°F2.4°C 34% 0.9 mph SE1.4 kmh SE 3.1 mph5.0 kmh 30.03 in1016.9 mb 0.00 in0.0 mm 0.00 in0.0 mm 0.00 in0.0 mm
09:53 AM 65.1°F18.4°C 36.9°F2.7°C 35% 2.2 mph WSW3.5 kmh WSW 4.3 mph6.9 kmh 30.03 in1016.9 mb 0.00 in0.0 mm 0.00 in0.0 mm 0.00 in0.0 mm
09:48 AM 64.9°F18.3°C 37.4°F3.0°C 36% 0.7 mph SSW1.1 kmh SSW 3.1 mph5.0 kmh 30.03 in1016.9 mb 0.00 in0.0 mm 0.00 in0.0 mm 0.00 in0.0 mm
09:43 AM 64.8°F18.2°C 37.2°F2.9°C 36% 1.1 mph SW1.8 kmh SW 3.1 mph5.0 kmh 30.03 in1016.9 mb 0.00 in0.0 mm 0.00 in0.0 mm 0.00 in0.0 mm
09:38 AM 64.2°F17.9°C 36.7°F2.6°C 36% Calm Calm -- 30.03 in1016.9 mb 0.00 in0.0 mm 0.00 in0.0 mm 0.00 in0.0 mm
09:33 AM 63.9°F17.7°C 35.6°F2.0°C 35% Calm Calm -- 30.03 in1016.9 mb 0.00 in0.0 mm 0.00 in0.0 mm 0.00 in0.0 mm
09:28 AM 63.7°F17.6°C 36.9°F2.7°C 37% Calm Calm 2.0 mph3.2 kmh 30.03 in1016.9 mb 0.00 in0.0 mm 0.00 in0.0 mm 0.00 in0.0 mm
09:23 AM 63.5°F17.5°C 36.1°F2.3°C 36% Calm Calm 1.1 mph1.8 kmh 30.02 in1016.6 mb 0.00 in0.0 mm 0.00 in0.0 mm 0.00 in0.0 mm
09:18 AM 62.8°F17.1°C 37.4°F3.0°C 39% Calm Calm -- 30.03 in1016.9 mb 0.00 in0.0 mm 0.00 in0.0 mm 0.00 in0.0 mm
09:13 AM 61.9°F16.6°C 36.7°F2.6°C 39% Calm Calm -- 30.03 in1016.9 mb 0.00 in0.0 mm 0.00 in0.0 mm 0.00 in0.0 mm
09:08 AM 61.2°F16.2°C 36.0°F2.2°C 39% Calm Calm -- 30.03 in1016.9 mb 0.00 in0.0 mm 0.00 in0.0 mm 0.00 in0.0 mm
09:03 AM 60.8°F16.0°C 38.1°F3.4°C 43% Calm Calm -- 30.03 in1016.9 mb 0.00 in0.0 mm 0.00 in0.0 mm 0.00 in0.0 mm
08:58 AM 60.4°F15.8°C 39.0°F3.9°C 45% Calm Calm -- 30.03 in1016.9 mb 0.00 in0.0 mm 0.00 in0.0 mm 0.00 in0.0 mm
08:53 AM 59.7°F15.4°C 38.8°F3.8°C 46% Calm Calm -- 30.03 in1016.9 mb 0.00 in0.0 mm 0.00 in0.0 mm 0.00 in0.0 mm
08:48 AM 59.4°F15.2°C 38.7°F3.7°C 46% Calm Calm -- 30.02 in1016.6 mb 0.00 in0.0 mm 0.00 in0.0 mm 0.00 in0.0 mm
08:43 AM 58.6°F14.8°C 39.6°F4.2°C 49% Calm Calm -- 30.02 in1016.6 mb 0.00 in0.0 mm 0.00 in0.0 mm 0.00 in0.0 mm
08:38 AM 57.9°F14.4°C 37.8°F3.2°C 47% Calm Calm -- 30.01 in1016.3 mb 0.00 in0.0 mm 0.00 in0.0 mm 0.00 in0.0 mm
08:33 AM 56.7°F13.7°C 38.3°F3.5°C 50% Calm Calm -- 30.02 in1016.6 mb 0.00 in0.0 mm 0.00 in0.0 mm 0.00 in0.0 mm
08:28 AM 55.9°F13.3°C 38.1°F3.4°C 51% Calm Calm -- 30.01 in1016.3 mb 0.00 in0.0 mm 0.00 in0.0 mm 0.00 in0.0 mm
08:23 AM 55.6°F13.1°C 39.7°F4.3°C 55% Calm Calm -- 30.01 in1016.3 mb 0.00 in0.0 mm 0.00 in0.0 mm 0.00 in0.0 mm
08:18 AM 54.5°F12.5°C 38.7°F3.7°C 55% Calm Calm -- 30.01 in1016.3 mb 0.00 in0.0 mm 0.00 in0.0 mm 0.00 in0.0 mm
08:13 AM 53.8°F12.1°C 39.7°F4.3°C 59% Calm Calm -- 30.01 in1016.3 mb 0.00 in0.0 mm 0.00 in0.0 mm 0.00 in0.0 mm
08:08 AM 53.1°F11.7°C 39.2°F4.0°C 59% Calm Calm -- 30.01 in1016.3 mb 0.00 in0.0 mm 0.00 in0.0 mm 0.00 in0.0 mm
08:03 AM 53.2°F11.8°C 38.8°F3.8°C 58% Calm Calm 1.1 mph1.8 kmh 30.01 in1016.3 mb 0.00 in0.0 mm 0.00 in0.0 mm 0.00 in0.0 mm
07:58 AM 53.1°F11.7°C 39.2°F4.0°C 59% Calm Calm -- 30.01 in1016.3 mb 0.00 in0.0 mm 0.00 in0.0 mm 0.00 in0.0 mm
07:53 AM 52.2°F11.2°C 39.2°F4.0°C 61% Calm Calm -- 30.01 in1016.3 mb 0.00 in0.0 mm 0.00 in0.0 mm 0.00 in0.0 mm
07:48 AM 51.4°F10.8°C 38.8°F3.8°C 62% Calm Calm -- 30.01 in1016.3 mb 0.00 in0.0 mm 0.00 in0.0 mm 0.00 in0.0 mm
07:43 AM 51.1°F10.6°C 38.5°F3.6°C 62% Calm Calm -- 30.01 in1016.3 mb 0.00 in0.0 mm 0.00 in0.0 mm 0.00 in0.0 mm
07:38 AM 50.7°F10.4°C 38.1°F3.4°C 62% Calm Calm 1.1 mph1.8 kmh 30.01 in1016.3 mb 0.00 in0.0 mm 0.00 in0.0 mm 0.00 in0.0 mm
07:33 AM 50.5°F10.3°C 37.6°F3.1°C 61% Calm Calm 1.1 mph1.8 kmh 30.00 in1015.9 mb 0.00 in0.0 mm 0.00 in0.0 mm 0.00 in0.0 mm
07:28 AM 50.7°F10.4°C 37.4°F3.0°C 60% Calm Calm -- 30.00 in1015.9 mb 0.00 in0.0 mm 0.00 in0.0 mm 0.00 in0.0 mm
07:23 AM 50.7°F10.4°C 37.4°F3.0°C 60% Calm Calm 1.1 mph1.8 kmh 30.01 in1016.3 mb 0.00 in0.0 mm 0.00 in0.0 mm 0.00 in0.0 mm
07:18 AM 51.1°F10.6°C 37.2°F2.9°C 59% Calm Calm -- 30.01 in1016.3 mb 0.00 in0.0 mm 0.00 in0.0 mm 0.00 in0.0 mm
07:13 AM 51.3°F10.7°C 36.5°F2.5°C 57% 0.4 mph NW0.6 kmh NW 4.3 mph6.9 kmh 30.01 in1016.3 mb 0.00 in0.0 mm 0.00 in0.0 mm 0.00 in0.0 mm
07:08 AM 50.9°F10.5°C 36.1°F2.3°C 57% 2.0 mph NNW3.2 kmh NNW 3.1 mph5.0 kmh 30.01 in1016.3 mb 0.00 in0.0 mm 0.00 in0.0 mm 0.00 in0.0 mm
07:03 AM 50.4°F10.2°C 36.1°F2.3°C 58% Calm Calm 2.0 mph3.2 kmh 30.01 in1016.3 mb 0.00 in0.0 mm 0.00 in0.0 mm 0.00 in0.0 mm
06:58 AM 49.8°F9.9°C 36.5°F2.5°C 60% 0.7 mph N1.1 kmh N 2.0 mph3.2 kmh 30.01 in1016.3 mb 0.00 in0.0 mm 0.00 in0.0 mm 0.00 in0.0 mm
06:53 AM 49.6°F9.8°C 36.0°F2.2°C 59% Calm Calm -- 30.00 in1015.9 mb 0.00 in0.0 mm 0.00 in0.0 mm 0.00 in0.0 mm
06:48 AM 49.8°F9.9°C 36.1°F2.3°C 59% Calm Calm -- 29.99 in1015.6 mb 0.00 in0.0 mm 0.00 in0.0 mm 0.00 in0.0 mm
06:43 AM 50.4°F10.2°C 36.1°F2.3°C 58% Calm Calm -- 29.99 in1015.6 mb 0.00 in0.0 mm 0.00 in0.0 mm 0.00 in0.0 mm
06:38 AM 50.5°F10.3°C 36.3°F2.4°C 58% Calm Calm -- 29.99 in1015.6 mb 0.00 in0.0 mm 0.00 in0.0 mm 0.00 in0.0 mm
06:33 AM 50.4°F10.2°C 36.1°F2.3°C 58% Calm Calm -- 29.99 in1015.6 mb 0.00 in0.0 mm 0.00 in0.0 mm 0.00 in0.0 mm
06:28 AM 50.5°F10.3°C 36.3°F2.4°C 58% Calm Calm -- 29.99 in1015.6 mb 0.00 in0.0 mm 0.00 in0.0 mm 0.00 in0.0 mm
06:23 AM 50.5°F10.3°C 36.7°F2.6°C 59% Calm Calm -- 29.99 in1015.6 mb 0.00 in0.0 mm 0.00 in0.0 mm 0.00 in0.0 mm
06:18 AM 50.2°F10.1°C 36.9°F2.7°C 60% Calm Calm 1.1 mph1.8 kmh 29.99 in1015.6 mb 0.00 in0.0 mm 0.00 in0.0 mm 0.00 in0.0 mm
06:13 AM 50.4°F10.2°C 37.4°F3.0°C 61% Calm Calm -- 29.98 in1015.2 mb 0.00 in0.0 mm 0.00 in0.0 mm 0.00 in0.0 mm
06:08 AM 50.4°F10.2°C 37.0°F2.8°C 60% Calm Calm -- 29.99 in1015.6 mb 0.00 in0.0 mm 0.00 in0.0 mm 0.00 in0.0 mm
06:03 AM 50.2°F10.1°C 37.2°F2.9°C 61% Calm Calm -- 29.99 in1015.6 mb 0.00 in0.0 mm 0.00 in0.0 mm 0.00 in0.0 mm
05:58 AM 50.4°F10.2°C 37.4°F3.0°C 61% Calm Calm -- 29.99 in1015.6 mb 0.00 in0.0 mm 0.00 in0.0 mm 0.00 in0.0 mm
05:53 AM 50.5°F10.3°C 37.9°F3.3°C 62% Calm Calm -- 29.99 in1015.6 mb 0.00 in0.0 mm 0.00 in0.0 mm 0.00 in0.0 mm
05:48 AM 50.5°F10.3°C 37.9°F3.3°C 62% Calm Calm -- 29.99 in1015.6 mb 0.00 in0.0 mm 0.00 in0.0 mm 0.00 in0.0 mm
05:43 AM 50.5°F10.3°C 37.9°F3.3°C 62% Calm Calm -- 29.99 in1015.6 mb 0.00 in0.0 mm 0.00 in0.0 mm 0.00 in0.0 mm
05:38 AM 50.7°F10.4°C 38.1°F3.4°C 62% Calm Calm -- 29.99 in1015.6 mb 0.00 in0.0 mm 0.00 in0.0 mm 0.00 in0.0 mm
05:33 AM 50.7°F10.4°C 38.1°F3.4°C 62% Calm Calm -- 29.99 in1015.6 mb 0.00 in0.0 mm 0.00 in0.0 mm 0.00 in0.0 mm
05:28 AM 50.9°F10.5°C 38.3°F3.5°C 62% Calm Calm -- 29.99 in1015.6 mb 0.00 in0.0 mm 0.00 in0.0 mm 0.00 in0.0 mm
05:23 AM 51.1°F10.6°C 38.8°F3.8°C 63% Calm Calm -- 29.99 in1015.6 mb 0.00 in0.0 mm 0.00 in0.0 mm 0.00 in0.0 mm
05:18 AM 50.7°F10.4°C 38.7°F3.7°C 63% Calm Calm -- 29.99 in1015.6 mb 0.00 in0.0 mm 0.00 in0.0 mm 0.00 in0.0 mm
05:13 AM 50.7°F10.4°C 39.0°F3.9°C 64% Calm Calm -- 29.99 in1015.6 mb 0.00 in0.0 mm 0.00 in0.0 mm 0.00 in0.0 mm
05:08 AM 50.7°F10.4°C 39.0°F3.9°C 64% Calm Calm 1.1 mph1.8 kmh 29.99 in1015.6 mb 0.00 in0.0 mm 0.00 in0.0 mm 0.00 in0.0 mm
05:03 AM 50.7°F10.4°C 39.0°F3.9°C 64% 0.9 mph NW1.4 kmh NW 2.0 mph3.2 kmh 29.99 in1015.6 mb 0.00 in0.0 mm 0.00 in0.0 mm 0.00 in0.0 mm
04:58 AM 51.1°F10.6°C 39.4°F4.1°C 64% Calm Calm 1.1 mph1.8 kmh 30.00 in1015.9 mb 0.00 in0.0 mm 0.00 in0.0 mm 0.00 in0.0 mm
04:53 AM 50.9°F10.5°C 39.6°F4.2°C 65% Calm Calm -- 30.00 in1015.9 mb 0.00 in0.0 mm 0.00 in0.0 mm 0.00 in0.0 mm
04:48 AM 50.7°F10.4°C 39.7°F4.3°C 66% Calm Calm -- 30.00 in1015.9 mb 0.00 in0.0 mm 0.00 in0.0 mm 0.00 in0.0 mm
04:43 AM 50.7°F10.4°C 40.1°F4.5°C 67% Calm Calm 1.1 mph1.8 kmh 30.01 in1016.3 mb 0.00 in0.0 mm 0.00 in0.0 mm 0.00 in0.0 mm
04:38 AM 50.5°F10.3°C 40.5°F4.7°C 68% Calm Calm -- 30.00 in1015.9 mb 0.00 in0.0 mm 0.00 in0.0 mm 0.00 in0.0 mm
04:33 AM 50.7°F10.4°C 40.5°F4.7°C 68% Calm Calm 1.1 mph1.8 kmh 30.01 in1016.3 mb 0.00 in0.0 mm 0.00 in0.0 mm 0.00 in0.0 mm
04:28 AM 51.1°F10.6°C 40.8°F4.9°C 68% Calm Calm -- 30.01 in1016.3 mb 0.00 in0.0 mm 0.00 in0.0 mm 0.00 in0.0 mm
04:23 AM 51.3°F10.7°C 40.6°F4.8°C 67% Calm Calm -- 30.01 in1016.3 mb 0.00 in0.0 mm 0.00 in0.0 mm 0.00 in0.0 mm
04:18 AM 51.6°F10.9°C 41.0°F5.0°C 67% Calm Calm 1.1 mph1.8 kmh 30.01 in1016.3 mb 0.00 in0.0 mm 0.00 in0.0 mm 0.00 in0.0 mm
04:13 AM 51.6°F10.9°C 41.4°F5.2°C 68% Calm Calm 1.1 mph1.8 kmh 30.01 in1016.3 mb 0.00 in0.0 mm 0.00 in0.0 mm 0.00 in0.0 mm
04:08 AM 51.4°F10.8°C 40.8°F4.9°C 67% Calm Calm -- 30.01 in1016.3 mb 0.00 in0.0 mm 0.00 in0.0 mm 0.00 in0.0 mm
04:03 AM 51.8°F11.0°C 41.2°F5.1°C 67% Calm Calm -- 30.01 in1016.3 mb 0.00 in0.0 mm 0.00 in0.0 mm 0.00 in0.0 mm
03:58 AM 52.2°F11.2°C 41.2°F5.1°C 66% Calm Calm 1.1 mph1.8 kmh 30.01 in1016.3 mb 0.00 in0.0 mm 0.00 in0.0 mm 0.00 in0.0 mm
03:53 AM 52.5°F11.4°C 41.5°F5.3°C 66% Calm Calm -- 30.01 in1016.3 mb 0.00 in0.0 mm 0.00 in0.0 mm 0.00 in0.0 mm
03:48 AM 52.5°F11.4°C 41.2°F5.1°C 65% Calm Calm -- 30.01 in1016.3 mb 0.00 in0.0 mm 0.00 in0.0 mm 0.00 in0.0 mm
03:43 AM 52.9°F11.6°C 41.4°F5.2°C 65% Calm Calm -- 30.01 in1016.3 mb 0.00 in0.0 mm 0.00 in0.0 mm 0.00 in0.0 mm
03:38 AM 53.1°F11.7°C 41.2°F5.1°C 64% Calm Calm 1.1 mph1.8 kmh 30.01 in1016.3 mb 0.00 in0.0 mm 0.00 in0.0 mm 0.00 in0.0 mm
03:33 AM 53.6°F12.0°C 41.4°F5.2°C 63% 0.4 mph E0.6 kmh E 1.1 mph1.8 kmh 30.01 in1016.3 mb 0.00 in0.0 mm 0.00 in0.0 mm 0.00 in0.0 mm
03:28 AM 53.6°F12.0°C 41.4°F5.2°C 63% Calm Calm -- 30.01 in1016.3 mb 0.00 in0.0 mm 0.00 in0.0 mm 0.00 in0.0 mm
03:23 AM 54.0°F12.2°C 41.2°F5.1°C 62% Calm Calm -- 30.01 in1016.3 mb 0.00 in0.0 mm 0.00 in0.0 mm 0.00 in0.0 mm
03:18 AM 54.1°F12.3°C 41.4°F5.2°C 62% Calm Calm 1.1 mph1.8 kmh 30.01 in1016.3 mb 0.00 in0.0 mm 0.00 in0.0 mm 0.00 in0.0 mm
03:13 AM 53.8°F12.1°C 41.0°F5.0°C 62% 0.2 mph 0.3 kmh 1.1 mph1.8 kmh 30.01 in1016.3 mb 0.00 in0.0 mm 0.00 in0.0 mm 0.00 in0.0 mm
03:08 AM 53.6°F12.0°C 41.4°F5.2°C 63% Calm Calm -- 30.01 in1016.3 mb 0.00 in0.0 mm 0.00 in0.0 mm 0.00 in0.0 mm
03:03 AM 53.8°F12.1°C 41.0°F5.0°C 62% Calm Calm -- 30.01 in1016.3 mb 0.00 in0.0 mm 0.00 in0.0 mm 0.00 in0.0 mm
02:58 AM 54.7°F12.6°C 41.0°F5.0°C 60% Calm Calm -- 30.01 in1016.3 mb 0.00 in0.0 mm 0.00 in0.0 mm 0.00 in0.0 mm
02:53 AM 54.9°F12.7°C 41.2°F5.1°C 60% Calm Calm -- 30.00 in1015.9 mb 0.00 in0.0 mm 0.00 in0.0 mm 0.00 in0.0 mm
02:48 AM 54.9°F12.7°C 41.2°F5.1°C 60% Calm Calm -- 30.00 in1015.9 mb 0.00 in0.0 mm 0.00 in0.0 mm 0.00 in0.0 mm
02:43 AM 54.7°F12.6°C 41.0°F5.0°C 60% Calm Calm -- 29.99 in1015.6 mb 0.00 in0.0 mm 0.00 in0.0 mm 0.00 in0.0 mm
02:38 AM 54.3°F12.4°C 41.2°F5.1°C 61% Calm Calm -- 30.00 in1015.9 mb 0.00 in0.0 mm 0.00 in0.0 mm 0.00 in0.0 mm
02:33 AM 54.3°F12.4°C 41.2°F5.1°C 61% Calm Calm -- 30.00 in1015.9 mb 0.00 in0.0 mm 0.00 in0.0 mm 0.00 in0.0 mm
02:28 AM 54.7°F12.6°C 41.9°F5.5°C 62% Calm Calm -- 30.00 in1015.9 mb 0.00 in0.0 mm 0.00 in0.0 mm 0.00 in0.0 mm
02:23 AM 54.7°F12.6°C 41.0°F5.0°C 60% Calm Calm 1.1 mph1.8 kmh 30.00 in1015.9 mb 0.00 in0.0 mm 0.00 in0.0 mm 0.00 in0.0 mm
02:18 AM 54.3°F12.4°C 41.5°F5.3°C 62% Calm Calm -- 30.00 in1015.9 mb 0.00 in0.0 mm 0.00 in0.0 mm 0.00 in0.0 mm
02:13 AM 54.1°F12.3°C 41.4°F5.2°C 62% Calm Calm -- 30.00 in1015.9 mb 0.00 in0.0 mm 0.00 in0.0 mm 0.00 in0.0 mm
02:08 AM 54.1°F12.3°C 41.9°F5.5°C 63% Calm Calm -- 30.00 in1015.9 mb 0.00 in0.0 mm 0.00 in0.0 mm 0.00 in0.0 mm
02:03 AM 54.1°F12.3°C 41.9°F5.5°C 63% Calm Calm -- 30.01 in1016.3 mb 0.00 in0.0 mm 0.00 in0.0 mm 0.00 in0.0 mm
01:58 AM 54.3°F12.4°C 41.5°F5.3°C 62% Calm Calm -- 30.00 in1015.9 mb 0.00 in0.0 mm 0.00 in0.0 mm 0.00 in0.0 mm
01:53 AM 54.3°F12.4°C 41.5°F5.3°C 62% Calm Calm -- 30.00 in1015.9 mb 0.00 in0.0 mm 0.00 in0.0 mm 0.00 in0.0 mm
01:48 AM 54.5°F12.5°C 41.7°F5.4°C 62% Calm Calm -- 30.01 in1016.3 mb 0.00 in0.0 mm 0.00 in0.0 mm 0.00 in0.0 mm
01:43 AM 54.7°F12.6°C 41.5°F5.3°C 61% Calm Calm -- 30.00 in1015.9 mb 0.00 in0.0 mm 0.00 in0.0 mm 0.00 in0.0 mm
01:38 AM 54.5°F12.5°C 41.4°F5.2°C 61% Calm Calm -- 30.00 in1015.9 mb 0.00 in0.0 mm 0.00 in0.0 mm 0.00 in0.0 mm
01:33 AM 54.7°F12.6°C 41.0°F5.0°C 60% Calm Calm -- 30.00 in1015.9 mb 0.00 in0.0 mm 0.00 in0.0 mm 0.00 in0.0 mm
01:28 AM 54.9°F12.7°C 41.2°F5.1°C 60% Calm Calm -- 30.01 in1016.3 mb 0.00 in0.0 mm 0.00 in0.0 mm 0.00 in0.0 mm
01:23 AM 55.0°F12.8°C 41.0°F5.0°C 59% Calm Calm -- 30.01 in1016.3 mb 0.00 in0.0 mm 0.00 in0.0 mm 0.00 in0.0 mm
01:18 AM 55.4°F13.0°C 41.4°F5.2°C 59% Calm Calm -- 30.01 in1016.3 mb 0.00 in0.0 mm 0.00 in0.0 mm 0.00 in0.0 mm
01:13 AM 55.6°F13.1°C 41.0°F5.0°C 58% Calm Calm -- 30.01 in1016.3 mb 0.00 in0.0 mm 0.00 in0.0 mm 0.00 in0.0 mm
01:08 AM 55.4°F13.0°C 40.8°F4.9°C 58% Calm Calm -- 30.01 in1016.3 mb 0.00 in0.0 mm 0.00 in0.0 mm 0.00 in0.0 mm
01:03 AM 55.8°F13.2°C 40.8°F4.9°C 57% Calm Calm -- 30.01 in1016.3 mb 0.00 in0.0 mm 0.00 in0.0 mm 0.00 in0.0 mm
12:58 AM 55.8°F13.2°C 40.3°F4.6°C 56% Calm Calm -- 30.01 in1016.3 mb 0.00 in0.0 mm 0.00 in0.0 mm 0.00 in0.0 mm
12:53 AM 55.8°F13.2°C 40.3°F4.6°C 56% Calm Calm -- 30.01 in1016.3 mb 0.00 in0.0 mm 0.00 in0.0 mm 0.00 in0.0 mm
12:48 AM 55.8°F13.2°C 39.9°F4.4°C 55% Calm Calm -- 30.01 in1016.3 mb 0.00 in0.0 mm 0.00 in0.0 mm 0.00 in0.0 mm
12:43 AM 56.3°F13.5°C 39.9°F4.4°C 54% Calm Calm -- 30.01 in1016.3 mb 0.00 in0.0 mm 0.00 in0.0 mm 0.00 in0.0 mm
12:38 AM 56.3°F13.5°C 39.4°F4.1°C 53% Calm Calm 2.0 mph3.2 kmh 30.01 in1016.3 mb 0.00 in0.0 mm 0.00 in0.0 mm 0.00 in0.0 mm
12:33 AM 56.1°F13.4°C 39.2°F4.0°C 53% 1.3 mph NNW2.1 kmh NNW 2.0 mph3.2 kmh 30.02 in1016.6 mb 0.00 in0.0 mm 0.00 in0.0 mm 0.00 in0.0 mm
12:28 AM 55.6°F13.1°C 39.7°F4.3°C 55% 0.7 mph NW1.1 kmh NW 1.1 mph1.8 kmh 30.02 in1016.6 mb 0.00 in0.0 mm 0.00 in0.0 mm 0.00 in0.0 mm
12:23 AM 55.8°F13.2°C 39.4°F4.1°C 54% Calm Calm -- 30.02 in1016.6 mb 0.00 in0.0 mm 0.00 in0.0 mm 0.00 in0.0 mm
12:18 AM 56.1°F13.4°C 39.2°F4.0°C 53% Calm Calm -- 30.02 in1016.6 mb 0.00 in0.0 mm 0.00 in0.0 mm 0.00 in0.0 mm
12:13 AM 56.1°F13.4°C 39.2°F4.0°C 53% Calm Calm 5.4 mph8.7 kmh 30.02 in1016.6 mb 0.00 in0.0 mm 0.00 in0.0 mm 0.00 in0.0 mm
12:08 AM 56.1°F13.4°C 39.7°F4.3°C 54% 3.6 mph SW5.8 kmh SW 5.4 mph8.7 kmh 30.02 in1016.6 mb 0.00 in0.0 mm 0.00 in0.0 mm 0.00 in0.0 mm
12:03 AM 56.1°F13.4°C 38.3°F3.5°C 51% Calm Calm -- 30.02 in1016.6 mb 0.00 in0.0 mm 0.00 in0.0 mm 0.00 in0.0 mm